Time;durP1;ratioP1;P1;durP2;ratioP2;P2;SDS_P1;SDS_P2;PMS_P1;PMS_P2;Temp;Humidity;BMP_temperature;BMP_pressure;BME280_temperature;BME280_humidity;BME280_pressure;Samples;Min_cycle;Max_cycle;Signal;HPM_P1;HPM_P2
2023/05/16 00:02:15;;;;;;;;;13.00;12.75;;;;;12.53;70.39;99792.72;5117176;28;8904;-61
2023/05/16 00:04:43;;;;;;;;;11.50;9.75;;;;;12.40;70.77;99792.13;5117157;28;8840;-60
2023/05/16 00:07:10;;;;;;;;;6.75;5.00;;;;;12.33;71.63;99797.19;5117195;28;8839;-60
2023/05/16 00:09:38;;;;;;;;;11.75;11.50;;;;;12.24;71.60;99802.47;5116543;28;8820;-60
2023/05/16 00:12:06;;;;;;;;;13.50;12.25;;;;;12.12;71.60;99799.06;5117126;28;8948;-60
2023/05/16 00:14:34;;;;;;;;;9.25;7.50;;;;;12.06;72.30;99810.28;5117046;28;8843;-60
2023/05/16 00:17:03;;;;;;;;;10.00;7.50;;;;;12.04;72.26;99816.72;5117193;28;8836;-61
2023/05/16 00:19:31;;;;;;;;;8.50;7.00;;;;;12.01;72.12;99817.00;5117239;28;8824;-60
2023/05/16 00:21:59;;;;;;;;;6.50;6.25;;;;;11.97;72.00;99818.25;5117128;28;8878;-59
2023/05/16 00:24:27;;;;;;;;;8.50;6.75;;;;;11.92;72.10;99817.81;5117197;28;8824;-59
2023/05/16 00:26:55;;;;;;;;;8.00;8.00;;;;;11.91;72.51;99837.44;5116833;28;8836;-59
2023/05/16 00:29:23;;;;;;;;;9.50;8.50;;;;;11.91;71.85;99828.63;5116405;28;8870;-59
2023/05/16 00:31:51;;;;;;;;;5.50;5.50;;;;;11.89;72.16;99833.25;5116859;28;8858;-59
2023/05/16 00:34:20;;;;;;;;;10.00;5.00;;;;;11.89;71.83;99841.25;5116415;28;8850;-59
2023/05/16 00:36:48;;;;;;;;;11.25;9.00;;;;;11.86;72.41;99834.34;5116581;28;8840;-59
2023/05/16 00:39:15;;;;;;;;;9.25;8.00;;;;;11.86;71.86;99839.69;5116688;28;8850;-59
2023/05/16 00:41:43;;;;;;;;;4.50;4.50;;;;;11.87;72.58;99841.38;5116755;28;8832;-60
2023/05/16 00:44:11;;;;;;;;;6.00;6.00;;;;;11.87;72.64;99840.53;5116589;28;8917;-59
2023/05/16 00:46:39;;;;;;;;;9.00;8.50;;;;;11.84;72.96;99836.28;5116671;28;8836;-61
2023/05/16 00:49:07;;;;;;;;;7.00;7.00;;;;;11.83;72.99;99845.28;5116291;28;8844;-59
2023/05/16 00:51:35;;;;;;;;;6.75;6.50;;;;;11.83;73.00;99849.78;5116404;28;8937;-59
2023/05/16 00:54:02;;;;;;;;;5.00;3.75;;;;;11.82;73.16;99848.09;5116578;28;9492;-59
2023/05/16 00:56:30;;;;;;;;;5.00;3.75;;;;;11.80;72.70;99853.56;5116302;28;8828;-59
2023/05/16 00:58:58;;;;;;;;;6.00;5.00;;;;;11.79;73.10;99854.53;5116215;28;8852;-59
2023/05/16 01:01:26;;;;;;;;;6.75;5.50;;;;;11.79;73.14;99854.53;5116236;28;8905;-59
2023/05/16 01:03:54;;;;;;;;;6.50;5.50;;;;;11.74;73.11;99851.41;5116676;28;9521;-59
2023/05/16 01:06:22;;;;;;;;;1.00;1.00;;;;;11.77;73.28;99856.50;5116367;28;9608;-59
2023/05/16 01:08:50;;;;;;;;;11.50;9.50;;;;;11.77;72.95;99856.50;5116456;28;9631;-59
2023/05/16 01:11:18;;;;;;;;;6.25;4.50;;;;;11.75;73.12;99861.09;5116120;28;8847;-59
2023/05/16 01:13:46;;;;;;;;;4.00;2.75;;;;;11.71;72.97;99861.50;5116677;28;8839;-58
2023/05/16 01:16:14;;;;;;;;;6.75;6.75;;;;;11.70;73.67;99858.00;5116021;28;8827;-59
2023/05/16 01:18:42;;;;;;;;;6.00;6.00;;;;;11.71;72.97;99866.81;5116236;28;8816;-59
2023/05/16 01:21:10;;;;;;;;;6.50;6.00;;;;;11.72;72.83;99868.53;5116199;28;8830;-59
2023/05/16 01:23:37;;;;;;;;;6.00;6.00;;;;;11.72;73.22;99866.72;5116232;28;8820;-59
2023/05/16 01:26:06;;;;;;;;;7.50;6.00;;;;;11.69;72.72;99861.63;5116318;28;8867;-59
2023/05/16 01:28:33;;;;;;;;;6.00;5.50;;;;;11.63;73.15;99872.84;5115891;28;8835;-59
2023/05/16 01:31:02;;;;;;;;;4.00;4.00;;;;;11.60;73.38;99862.41;5116056;28;8868;-59
2023/05/16 01:33:30;;;;;;;;;5.75;5.75;;;;;11.58;72.86;99871.50;5115837;28;8909;-58
2023/05/16 01:35:57;;;;;;;;;7.00;6.00;;;;;11.56;73.00;99874.28;5116194;28;8920;-59
2023/05/16 01:38:25;;;;;;;;;3.00;3.00;;;;;11.55;72.75;99869.94;5115885;28;8839;-59
2023/05/16 01:40:53;;;;;;;;;3.75;3.25;;;;;11.56;73.28;99868.09;5116015;28;9486;-59
2023/05/16 01:43:21;;;;;;;;;4.00;4.00;;;;;11.56;72.99;99870.78;5115682;28;8812;-59
2023/05/16 01:45:48;;;;;;;;;9.00;6.50;;;;;11.57;73.33;99870.66;5115927;28;8832;-58
2023/05/16 01:48:16;;;;;;;;;6.50;6.25;;;;;11.56;72.95;99873.44;5115776;28;8832;-58
2023/05/16 01:50:44;;;;;;;;;6.25;4.00;;;;;11.55;73.07;99872.59;5115812;28;8847;-58
2023/05/16 01:53:11;;;;;;;;;7.00;7.00;;;;;11.55;73.12;99872.59;5115808;28;8909;-58
2023/05/16 01:55:39;;;;;;;;;10.75;8.00;;;;;11.51;73.58;99876.50;5117510;28;8917;-59
2023/05/16 01:58:07;;;;;;;;;7.00;6.00;;;;;11.52;73.50;99878.19;5119743;28;8843;-59
2023/05/16 02:00:34;;;;;;;;;6.75;6.50;;;;;11.55;73.17;99880.59;5119385;28;8816;-58
2023/05/16 02:03:02;;;;;;;;;5.00;5.00;;;;;11.56;73.18;99876.97;5119494;28;8886;-58
2023/05/16 02:05:30;;;;;;;;;7.00;7.00;;;;;11.54;73.07;99880.72;5119772;28;8851;-59
2023/05/16 02:07:58;;;;;;;;;6.75;6.75;;;;;11.52;73.47;99882.69;5119305;28;8816;-59
2023/05/16 02:10:26;;;;;;;;;4.50;4.00;;;;;11.50;73.78;99888.13;5119138;28;8852;-58
2023/05/16 02:12:53;;;;;;;;;4.00;3.50;;;;;11.47;74.13;99893.75;5119320;28;8824;-59
2023/05/16 02:15:21;;;;;;;;;3.00;3.00;;;;;11.41;74.55;99894.25;5119497;28;8820;-58
2023/05/16 02:17:49;;;;;;;;;3.00;3.00;;;;;11.39;74.76;99901.50;5119406;28;8816;-59
2023/05/16 02:20:17;;;;;;;;;0.50;0.00;;;;;11.34;75.02;99901.06;5119323;28;8905;-58
2023/05/16 02:22:46;;;;;;;;;0.50;0.50;;;;;11.28;75.07;99896.25;5119295;28;8913;-59
2023/05/16 02:25:14;;;;;;;;;1.00;0.00;;;;;11.23;75.45;99903.75;5119220;28;8831;-59
2023/05/16 02:27:42;;;;;;;;;0.25;0.25;;;;;11.11;75.56;99898.59;5118837;28;8823;-59
2023/05/16 02:30:10;;;;;;;;;1.00;1.00;;;;;11.04;75.66;99908.06;5118932;28;9666;-59
2023/05/16 02:32:38;;;;;;;;;0.00;0.00;;;;;10.98;75.83;99906.75;5118730;28;8854;-60
2023/05/16 02:35:06;;;;;;;;;1.00;1.00;;;;;10.92;76.22;99922.41;5119042;28;8836;-58
2023/05/16 02:37:33;;;;;;;;;1.00;1.00;;;;;10.87;76.60;99932.59;5119230;28;9509;-59
2023/05/16 02:40:02;;;;;;;;;1.00;1.00;;;;;10.78;76.14;99931.50;5118740;28;8816;-59
2023/05/16 02:42:30;;;;;;;;;1.00;1.00;;;;;10.73;76.21;99930.19;5118618;28;8850;-59
2023/05/16 02:44:58;;;;;;;;;0.75;0.75;;;;;10.67;76.92;99930.66;5118826;28;8824;-59
2023/05/16 02:47:25;;;;;;;;;1.50;1.50;;;;;10.60;76.82;99940.97;5118502;28;8819;-59
2023/05/16 02:49:53;;;;;;;;;0.75;0.25;;;;;10.55;77.12;99942.31;5118620;28;8828;-58
2023/05/16 02:52:21;;;;;;;;;3.00;3.00;;;;;10.49;77.47;99946.31;5118295;28;8859;-58
2023/05/16 02:54:49;;;;;;;;;3.00;3.00;;;;;10.47;76.85;99950.06;5118511;28;8920;-59
2023/05/16 02:57:38;;;;;;;;;3.00;3.00;;;;;10.46;77.14;99957.19;5118534;28;8831;-58
2023/05/16 03:00:06;;;;;;;;;3.00;3.00;;;;;10.41;77.11;99962.03;5118372;28;8820;-59
2023/05/16 03:02:34;;;;;;;;;1.00;1.00;;;;;10.39;77.36;99969.28;5118254;28;8850;-58
2023/05/16 03:05:01;;;;;;;;;1.00;1.00;;;;;10.34;77.50;99966.16;5118737;28;8906;-59
2023/05/16 03:07:29;;;;;;;;;3.25;3.25;;;;;10.33;77.87;99966.28;5116636;28;8844;-57
2023/05/16 03:09:57;;;;;;;;;3.00;1.00;;;;;10.28;77.29;99973.75;5118001;28;8854;-59
2023/05/16 03:12:24;;;;;;;;;1.00;1.00;;;;;10.25;77.20;99972.19;5118156;28;8832;-58
2023/05/16 03:14:52;;;;;;;;;1.00;1.00;;;;;10.24;77.45;99974.97;5118010;28;8812;-61
2023/05/16 03:17:20;;;;;;;;;1.00;1.00;;;;;10.24;77.84;99970.50;5117838;28;9595;-59
2023/05/16 03:19:48;;;;;;;;;1.00;1.00;;;;;10.25;77.48;99972.19;5118039;28;8831;-59
2023/05/16 03:22:16;;;;;;;;;1.00;1.00;;;;;10.26;77.17;99976.53;5117902;28;8815;-59
2023/05/16 03:24:43;;;;;;;;;3.00;3.00;;;;;10.23;77.30;99979.44;5117925;28;8824;-61
2023/05/16 03:27:11;;;;;;;;;3.25;3.25;;;;;10.24;76.99;99980.31;5118394;28;8858;-59
2023/05/16 03:29:39;;;;;;;;;4.00;3.00;;;;;10.24;77.23;99980.31;5117809;28;8819;-61
2023/05/16 03:32:06;;;;;;;;;1.50;1.50;;;;;10.23;77.34;99983.94;5117470;28;8846;-61
2023/05/16 03:34:34;;;;;;;;;4.50;3.50;;;;;10.22;77.01;99985.72;5117437;28;8844;-62
2023/05/16 03:37:01;;;;;;;;;4.00;4.00;;;;;10.23;77.06;99990.09;5117174;28;8820;-59
2023/05/16 03:39:29;;;;;;;;;7.00;5.00;;;;;10.22;76.79;99990.19;5117563;28;8827;-60
2023/05/16 03:41:57;;;;;;;;;6.00;5.50;;;;;10.22;76.82;99987.53;5116979;28;8905;-59
2023/05/16 03:44:25;;;;;;;;;3.00;3.00;;;;;10.20;77.02;99998.31;5117227;28;8828;-58
2023/05/16 03:46:54;;;;;;;;;6.50;5.00;;;;;10.22;76.41;100000.84;5116578;28;8824;-59
2023/05/16 03:49:22;;;;;;;;;6.00;4.00;;;;;10.21;76.57;100001.81;5116663;28;8832;-58
2023/05/16 03:51:50;;;;;;;;;3.50;2.00;;;;;10.17;76.76;100001.19;5116359;28;8840;-61
2023/05/16 03:54:17;;;;;;;;;5.75;4.50;;;;;10.18;76.92;99997.56;5116578;28;8823;-61
2023/05/16 03:56:45;;;;;;;;;3.50;2.50;;;;;10.16;76.97;99996.84;5117031;28;8812;-59
2023/05/16 03:59:13;;;;;;;;;3.50;3.00;;;;;10.17;76.79;100006.53;5116818;28;9501;-60
2023/05/16 04:01:41;;;;;;;;;5.00;3.75;;;;;10.19;76.57;100015.25;5116615;28;8832;-58
2023/05/16 04:04:09;;;;;;;;;6.00;4.75;;;;;10.21;76.31;100017.78;5116899;28;8847;-61
2023/05/16 04:06:36;;;;;;;;;3.25;3.00;;;;;10.18;76.46;100012.69;5116624;28;8823;-58
2023/05/16 04:09:04;;;;;;;;;3.00;3.00;;;;;10.17;76.79;100024.31;5116284;28;8842;-59
2023/05/16 04:11:33;;;;;;;;;6.00;4.00;;;;;10.16;76.39;100028.78;5116043;28;8852;-61
2023/05/16 04:14:00;;;;;;;;;5.50;5.50;;;;;10.17;76.23;100021.66;5116401;28;8909;-61
2023/05/16 04:16:29;;;;;;;;;5.00;5.00;;;;;10.18;76.46;100034.81;5116094;28;8950;-59
2023/05/16 04:18:56;;;;;;;;;4.50;3.50;;;;;10.17;76.34;100038.44;5115277;28;8846;-59
2023/05/16 04:21:24;;;;;;;;;4.00;4.00;;;;;10.18;76.58;100041.97;5115915;28;8934;-61
2023/05/16 04:23:53;;;;;;;;;5.00;4.00;;;;;10.16;76.47;100041.25;5115693;28;8859;-61
2023/05/16 04:26:22;;;;;;;;;3.00;3.00;;;;;10.14;76.68;100044.03;5115630;28;8897;-59
2023/05/16 04:28:50;;;;;;;;;2.00;2.00;;;;;10.17;76.62;100048.25;5115985;28;8832;-58
2023/05/16 04:31:17;;;;;;;;;3.25;2.25;;;;;10.16;77.25;100052.72;5115472;28;8929;-58
2023/05/16 04:33:45;;;;;;;;;3.00;3.00;;;;;10.16;76.60;100058.03;5115458;28;8920;-58
2023/05/16 04:36:13;;;;;;;;;3.25;1.50;;;;;10.15;77.00;100067.00;5115445;28;8827;-59
2023/05/16 04:38:41;;;;;;;;;3.00;3.00;;;;;10.15;76.63;100060.81;5115441;28;8863;-58
2023/05/16 04:41:09;;;;;;;;;2.25;2.25;;;;;10.17;76.80;100065.06;5115469;28;8824;-58
2023/05/16 04:43:37;;;;;;;;;0.50;0.50;;;;;10.19;76.62;100068.47;5115659;28;8846;-59
2023/05/16 04:46:06;;;;;;;;;3.75;3.50;;;;;10.20;76.59;100079.94;5115716;28;8839;-61
2023/05/16 04:48:34;;;;;;;;;3.00;3.00;;;;;10.16;76.20;100075.84;5115803;28;8849;-61
2023/05/16 04:51:01;;;;;;;;;4.00;3.50;;;;;10.13;76.75;100090.22;5115845;28;8832;-61
2023/05/16 04:53:29;;;;;;;;;2.00;2.00;;;;;10.07;76.57;100090.69;5115920;28;8847;-59
2023/05/16 04:55:57;;;;;;;;;1.50;1.00;;;;;10.01;76.79;100092.94;5116509;28;8840;-61
2023/05/16 04:58:25;;;;;;;;;1.50;1.50;;;;;9.99;76.68;100095.69;5115249;28;8816;-59
2023/05/16 05:00:52;;;;;;;;;0.00;0.00;;;;;9.95;76.81;100104.03;5115555;28;8828;-61
2023/05/16 05:03:20;;;;;;;;;1.00;1.00;;;;;9.93;77.25;100106.78;5115875;28;8823;-61
2023/05/16 05:05:48;;;;;;;;;1.00;1.00;;;;;9.87;77.13;100109.88;5116365;28;8844;-60
2023/05/16 05:08:16;;;;;;;;;1.00;1.00;;;;;9.78;77.39;100112.41;5115852;28;8844;-59
2023/05/16 05:10:44;;;;;;;;;1.00;1.00;;;;;9.71;77.42;100125.28;5115063;28;9564;-61
2023/05/16 05:13:11;;;;;;;;;0.25;0.25;;;;;9.63;77.51;100122.34;5115329;28;8812;-60
2023/05/16 05:15:39;;;;;;;;;1.00;1.00;;;;;9.57;77.58;100121.94;5115259;28;8855;-61
2023/05/16 05:18:07;;;;;;;;;2.00;1.00;;;;;9.55;77.77;100124.69;5115166;28;8832;-58
2023/05/16 05:20:35;;;;;;;;;1.00;1.00;;;;;9.53;77.56;100121.31;5115289;28;8832;-61
2023/05/16 05:23:02;;;;;;;;;2.00;1.00;;;;;9.52;77.60;100130.25;5116144;28;9493;-61
2023/05/16 05:25:32;;;;;;;;;1.00;1.00;;;;;9.62;77.53;100133.94;5115521;28;8820;-60
2023/05/16 05:28:02;;;;;;;;;1.00;1.00;;;;;9.71;77.30;100135.91;5114976;28;8839;-60
2023/05/16 05:30:31;;;;;;;;;0.25;0.25;;;;;9.82;76.80;100143.97;5116439;28;8816;-60
2023/05/16 05:32:58;;;;;;;;;2.50;1.00;;;;;9.98;76.58;100143.69;5118145;28;8836;-58
2023/05/16 05:35:26;;;;;;;;;1.00;1.00;;;;;10.15;76.04;100151.28;5118885;28;8974;-61
2023/05/16 05:37:54;;;;;;;;;1.00;1.00;;;;;10.26;76.01;100154.00;5117480;28;8840;-59
2023/05/16 05:40:22;;;;;;;;;6.00;1.00;;;;;10.34;75.26;100147.16;5118338;28;8840;-59
2023/05/16 05:42:50;;;;;;;;;1.00;1.00;;;;;10.39;75.82;100149.47;5118664;28;8836;-60
2023/05/16 05:45:18;;;;;;;;;3.50;3.50;;;;;10.46;75.11;100146.22;5118450;28;8816;-61
2023/05/16 05:47:46;;;;;;;;;1.00;1.00;;;;;10.49;75.14;100153.13;5117473;28;8862;-60
2023/05/16 05:50:14;;;;;;;;;1.00;1.00;;;;;10.49;75.25;100161.13;5117090;28;9644;-57
2023/05/16 05:52:42;;;;;;;;;2.00;2.00;;;;;10.50;75.02;100152.16;5116451;28;8857;-61
2023/05/16 05:55:10;;;;;;;;;1.00;1.00;;;;;10.56;75.17;100165.00;5116778;28;8843;-60
2023/05/16 05:57:38;;;;;;;;;3.00;3.00;;;;;10.59;74.69;100162.09;5116434;28;8861;-61
2023/05/16 06:00:06;;;;;;;;;2.00;1.00;;;;;10.59;74.77;100160.28;5116164;28;8820;-58
2023/05/16 06:02:33;;;;;;;;;0.00;0.00;;;;;10.52;74.85;100160.88;5116491;28;8851;-59
2023/05/16 06:05:01;;;;;;;;;4.00;3.50;;;;;10.39;74.92;100162.78;5117302;28;8854;-61
2023/05/16 06:07:29;;;;;;;;;1.00;1.00;;;;;10.41;75.51;100164.34;5117310;28;8908;-60
2023/05/16 06:09:57;;;;;;;;;2.00;2.00;;;;;10.46;75.00;100167.50;5117075;28;8835;-60
2023/05/16 06:12:25;;;;;;;;;0.25;0.25;;;;;10.54;75.07;100175.75;5116906;28;8885;-60
2023/05/16 06:14:54;;;;;;;;;3.00;3.00;;;;;10.64;74.68;100179.44;5116890;28;8831;-60
2023/05/16 06:17:22;;;;;;;;;1.50;1.50;;;;;10.65;74.53;100182.94;5117049;28;8828;-60
2023/05/16 06:19:50;;;;;;;;;1.50;1.00;;;;;10.57;74.59;100172.03;5116760;28;8860;-60
2023/05/16 06:22:18;;;;;;;;;2.25;2.00;;;;;10.59;74.59;100183.41;5116997;28;8847;-58
2023/05/16 06:24:45;;;;;;;;;2.50;2.50;;;;;10.60;74.43;100182.44;5116618;28;8832;-60
2023/05/16 06:27:13;;;;;;;;;2.50;2.50;;;;;10.52;74.44;100193.69;5116476;28;8846;-60
2023/05/16 06:29:41;;;;;;;;;4.25;4.00;;;;;10.52;74.73;100187.50;5116148;28;8850;-59
2023/05/16 06:32:09;;;;;;;;;2.00;2.00;;;;;10.55;74.33;100192.59;5116035;28;8837;-60
2023/05/16 06:34:39;;;;;;;;;3.25;2.00;;;;;10.61;74.45;100194.81;5116808;28;8883;-60
2023/05/16 06:37:07;;;;;;;;;1.00;1.00;;;;;10.68;74.37;100198.69;5116571;28;8828;-60
2023/05/16 06:39:35;;;;;;;;;1.50;1.50;;;;;10.74;74.57;100201.75;5117199;28;8843;-62
2023/05/16 06:42:02;;;;;;;;;3.00;1.00;;;;;10.80;74.52;100193.28;5117074;28;8831;-61
2023/05/16 06:44:30;;;;;;;;;2.00;1.00;;;;;10.96;73.81;100190.28;5117912;28;9665;-61
2023/05/16 06:46:58;;;;;;;;;1.00;1.00;;;;;11.11;73.74;100194.41;5117495;28;8831;-61
2023/05/16 06:49:25;;;;;;;;;1.00;1.00;;;;;11.25;73.08;100194.19;5117913;28;8917;-61
2023/05/16 06:51:53;;;;;;;;;1.00;1.00;;;;;11.40;73.19;100193.84;5117484;28;8843;-58
2023/05/16 06:54:21;;;;;;;;;3.00;1.00;;;;;11.52;72.67;100190.19;5117693;28;8832;-60
2023/05/16 06:56:49;;;;;;;;;3.00;1.50;;;;;11.59;72.36;100188.78;5116872;28;8839;-58
2023/05/16 06:59:17;;;;;;;;;2.00;1.00;;;;;11.56;71.97;100194.34;5116972;28;8866;-60
2023/05/16 07:01:45;;;;;;;;;1.00;1.00;;;;;11.52;72.56;100203.53;5116362;28;8970;-61
2023/05/16 07:04:14;;;;;;;;;3.50;3.00;;;;;11.52;72.59;100198.19;5115700;28;8852;-59
2023/05/16 07:06:42;;;;;;;;;3.00;3.00;;;;;11.60;72.10;100203.81;5115382;28;8920;-59
2023/05/16 07:09:10;;;;;;;;;1.00;1.00;;;;;11.62;72.05;100204.56;5115431;28;8843;-61
2023/05/16 07:11:37;;;;;;;;;2.50;1.00;;;;;11.71;72.39;100202.94;5115526;28;8836;-59
2023/05/16 07:14:05;;;;;;;;;1.00;0.75;;;;;11.93;71.73;100209.13;5115727;28;8957;-59
2023/05/16 07:16:33;;;;;;;;;0.25;0.25;;;;;12.28;70.89;100199.06;5114890;28;8844;-61
2023/05/16 07:19:01;;;;;;;;;0.25;0.25;;;;;12.63;70.66;100197.84;5116123;28;8816;-60
2023/05/16 07:21:29;;;;;;;;;3.00;3.00;;;;;12.98;69.51;100184.19;5116150;28;8839;-59
2023/05/16 07:23:57;;;;;;;;;3.00;1.00;;;;;13.28;68.67;100192.25;5116255;28;8997;-61
2023/05/16 07:26:25;;;;;;;;;1.00;1.00;;;;;13.43;68.10;100198.94;5116334;28;8831;-60
2023/05/16 07:28:53;;;;;;;;;4.00;3.00;;;;;13.33;68.92;100206.06;5116250;28;8827;-61
2023/05/16 07:31:21;;;;;;;;;1.50;1.50;;;;;13.24;69.05;100196.16;5116313;28;8832;-61
2023/05/16 07:33:49;;;;;;;;;2.50;2.50;;;;;13.08;68.88;100201.97;5116330;28;8846;-61
2023/05/16 07:36:17;;;;;;;;;2.50;2.50;;;;;12.88;69.59;100212.63;5115786;28;8924;-59
2023/05/16 07:38:44;;;;;;;;;1.00;1.00;;;;;12.65;70.50;100214.59;5115505;28;8839;-58
2023/05/16 07:41:12;;;;;;;;;1.00;1.00;;;;;12.43;71.20;100211.16;5114847;28;8897;-61
2023/05/16 07:43:40;;;;;;;;;0.75;0.75;;;;;12.33;70.81;100215.56;5115847;28;9798;-62
2023/05/16 07:46:09;;;;;;;;;1.00;1.00;;;;;12.35;71.17;100210.94;5115561;28;8836;-58
2023/05/16 07:48:36;;;;;;;;;3.50;1.00;;;;;12.51;70.45;100214.03;5115208;28;8824;-61
2023/05/16 07:51:04;;;;;;;;;1.00;1.00;;;;;12.79;70.15;100213.41;5115909;28;8874;-59
2023/05/16 07:53:32;;;;;;;;;0.50;0.50;;;;;13.03;69.14;100209.56;5114853;28;8928;-61
2023/05/16 07:56:00;;;;;;;;;1.50;1.50;;;;;13.27;68.69;100209.25;5115534;28;9521;-58
2023/05/16 07:58:28;;;;;;;;;0.75;0.75;;;;;13.56;67.87;100203.09;5114168;28;8851;-59
2023/05/16 08:00:56;;;;;;;;;0.75;0.75;;;;;13.83;67.53;100210.50;5114195;28;8832;-62
2023/05/16 08:03:23;;;;;;;;;0.75;0.25;;;;;14.06;66.66;100217.34;5114261;28;8847;-61
2023/05/16 08:05:51;;;;;;;;;2.00;1.00;;;;;14.12;66.68;100212.28;5115232;28;8859;-59
2023/05/16 08:08:19;;;;;;;;;1.00;1.00;;;;;13.99;66.69;100205.47;5114654;28;8840;-59
2023/05/16 08:10:47;;;;;;;;;0.75;0.75;;;;;13.69;67.77;100213.56;5114684;28;8848;-61
2023/05/16 08:13:15;;;;;;;;;2.00;1.25;;;;;13.45;68.22;100215.72;5114372;28;8862;-59
2023/05/16 08:15:43;;;;;;;;;1.00;1.00;;;;;13.20;68.33;100214.31;5114726;28;8880;-59
2023/05/16 08:18:11;;;;;;;;;1.50;1.50;;;;;13.00;69.07;100214.31;5114058;28;8835;-59
2023/05/16 08:20:40;;;;;;;;;3.75;3.25;;;;;12.86;69.36;100219.94;5113464;28;8827;-58
2023/05/16 08:23:08;;;;;;;;;0.75;0.75;;;;;12.75;69.25;100225.38;5113580;28;8836;-60
2023/05/16 08:25:36;;;;;;;;;0.00;0.00;;;;;12.70;69.48;100228.41;5112639;28;8816;-59
2023/05/16 08:28:04;;;;;;;;;0.50;0.50;;;;;12.71;68.96;100224.78;5112912;28;8831;-59
2023/05/16 08:30:32;;;;;;;;;0.75;0.75;;;;;12.70;69.19;100225.72;5113712;28;8886;-58
2023/05/16 08:33:03;;;;;;;;;1.50;1.50;;;;;12.67;69.01;100227.81;5113016;28;8840;-58
2023/05/16 08:35:31;;;;;;;;;3.00;2.00;;;;;12.63;68.50;100229.06;5113320;28;8844;-59
2023/05/16 08:37:59;;;;;;;;;2.00;2.00;;;;;12.78;68.84;100230.44;5114154;28;8828;-59
2023/05/16 08:40:27;;;;;;;;;3.00;1.50;;;;;12.97;68.53;100230.59;5113585;28;8824;-59
2023/05/16 08:42:55;;;;;;;;;2.00;2.00;;;;;13.30;67.72;100215.19;5113538;28;8913;-59
2023/05/16 08:45:23;;;;;;;;;1.00;0.50;;;;;13.65;66.50;100220.16;5113809;28;8827;-60
2023/05/16 08:47:51;;;;;;;;;1.00;1.00;;;;;13.78;66.35;100212.75;5114172;28;8836;-60
2023/05/16 08:50:20;;;;;;;;;1.50;1.00;;;;;13.74;66.38;100220.19;5112246;28;8836;-59
2023/05/16 08:52:48;;;;;;;;;0.00;0.00;;;;;13.68;66.00;100222.56;5113322;28;8836;-60
2023/05/16 08:55:15;;;;;;;;;1.00;0.25;;;;;13.54;66.48;100229.13;5113359;28;8828;-59
2023/05/16 08:57:43;;;;;;;;;0.00;0.00;;;;;13.46;66.89;100223.63;5113445;28;8840;-59
2023/05/16 09:00:11;;;;;;;;;0.50;0.00;;;;;13.44;66.52;100222.03;5113479;28;9758;-59
2023/05/16 09:02:40;;;;;;;;;0.00;0.00;;;;;13.46;66.70;100218.25;5112607;28;9628;-61
2023/05/16 09:05:08;;;;;;;;;1.00;1.00;;;;;13.69;65.75;100210.88;5115497;28;8879;-61
2023/05/16 09:07:36;;;;;;;;;0.00;0.00;;;;;14.02;64.77;100210.56;5118186;28;8840;-58
2023/05/16 09:10:05;;;;;;;;;0.00;0.00;;;;;14.38;64.20;100213.50;5118656;28;9895;-61
2023/05/16 09:12:34;;;;;;;;;1.00;1.00;;;;;14.76;63.64;100213.50;5118858;28;8847;-60
2023/05/16 09:15:01;;;;;;;;;0.00;0.00;;;;;15.12;62.39;100217.28;5118525;28;8938;-61
2023/05/16 09:17:29;;;;;;;;;0.00;0.00;;;;;15.42;61.66;100206.34;5117572;28;8839;-61
2023/05/16 09:20:07;;;;;;;;;0.50;0.50;;;;;15.47;61.65;100202.22;5118184;28;8885;-59
2023/05/16 09:22:36;;;;;;;;;1.00;1.00;;;;;15.25;61.99;100212.44;5118462;28;8877;-61
2023/05/16 09:25:04;;;;;;;;;0.75;0.00;;;;;14.91;62.75;100224.63;5117769;28;8851;-59
2023/05/16 09:27:39;;;;;;;;;1.00;0.25;;;;;14.57;63.19;100220.69;5118298;28;8840;-60
2023/05/16 09:30:07;;;;;;;;;1.00;1.00;;;;;14.47;63.32;100227.88;5118289;28;8856;-61
2023/05/16 09:32:36;;;;;;;;;1.00;1.00;;;;;14.70;62.63;100223.94;5118193;28;8832;-59
2023/05/16 09:35:05;;;;;;;;;0.00;0.00;;;;;15.08;61.96;100223.91;5118243;28;8868;-60
2023/05/16 09:37:32;;;;;;;;;0.00;0.00;;;;;15.56;60.91;100200.50;5117853;28;8862;-59
2023/05/16 09:40:00;;;;;;;;;1.00;1.00;;;;;15.94;60.11;100208.41;5118539;28;8842;-60
2023/05/16 09:42:28;;;;;;;;;1.00;1.00;;;;;15.96;59.26;100206.41;5118514;28;8973;-60
2023/05/16 09:44:56;;;;;;;;;0.00;0.00;;;;;15.75;60.05;100213.84;5118335;28;8820;-59
2023/05/16 09:47:24;;;;;;;;;0.40;0.00;;;;;15.72;60.10;100214.16;5118057;28;8843;-59
2023/05/16 09:49:52;;;;;;;;;0.00;0.00;;;;;16.22;58.97;100212.78;5117603;28;8855;-59
2023/05/16 09:52:20;;;;;;;;;0.00;0.00;;;;;16.79;57.83;100200.59;5117205;28;8840;-60
2023/05/16 09:54:48;;;;;;;;;0.00;0.00;;;;;17.18;56.38;100210.00;5116313;28;8839;-59
2023/05/16 09:57:16;;;;;;;;;0.00;0.00;;;;;17.54;55.73;100211.59;5116406;28;8901;-59
2023/05/16 09:59:45;;;;;;;;;0.00;0.00;;;;;18.07;55.12;100204.09;5116562;28;8851;-59
2023/05/16 10:02:13;;;;;;;;;0.00;0.00;;;;;18.63;54.59;100206.13;5116375;28;8840;-60
2023/05/16 10:04:41;;;;;;;;;0.40;0.40;;;;;18.88;53.63;100200.59;5116454;28;8982;-59
2023/05/16 10:07:08;;;;;;;;;0.40;0.40;;;;;19.31;53.00;100196.72;5116847;28;8827;-60
2023/05/16 10:09:36;;;;;;;;;1.00;0.80;;;;;19.59;52.17;100195.31;5116944;28;8819;-60
2023/05/16 10:12:05;;;;;;;;;1.80;0.60;;;;;19.03;53.39;100204.31;5117531;28;8831;-60
2023/05/16 10:14:33;;;;;;;;;1.00;1.00;;;;;18.19;55.41;100216.28;5117179;28;8937;-59
2023/05/16 10:17:01;;;;;;;;;1.00;1.00;;;;;17.47;56.92;100210.56;5115967;28;8960;-59
2023/05/16 10:19:29;;;;;;;;;1.00;1.00;;;;;16.99;57.50;100209.31;5116331;28;8827;-59
2023/05/16 10:21:58;;;;;;;;;1.00;1.00;;;;;16.80;58.33;100207.66;5115881;28;8844;-59
2023/05/16 10:24:26;;;;;;;;;0.80;0.80;;;;;17.49;57.02;100207.72;5116467;28;8834;-58
2023/05/16 10:26:54;;;;;;;;;0.20;0.20;;;;;18.45;54.85;100208.97;5116415;28;8958;-59
2023/05/16 10:29:22;;;;;;;;;1.40;1.40;;;;;19.42;53.02;100189.09;5116137;28;8855;-60
2023/05/16 10:31:50;;;;;;;;;0.20;0.00;;;;;20.26;51.73;100189.31;5116840;28;8952;-61
2023/05/16 10:34:18;;;;;;;;;1.00;1.00;;;;;20.96;50.57;100183.63;5117191;28;8847;-59
2023/05/16 10:36:46;;;;;;;;;0.00;0.00;;;;;20.89;50.74;100178.06;5117164;28;8840;-60
2023/05/16 10:39:15;;;;;;;;;0.40;0.40;;;;;21.39;49.77;100186.41;5117090;28;8832;-59
2023/05/16 10:41:43;;;;;;;;;0.00;0.00;;;;;21.87;49.11;100179.66;5117101;28;8852;-61
2023/05/16 10:44:11;;;;;;;;;0.60;0.00;;;;;21.97;48.68;100174.75;5116712;28;8832;-59
2023/05/16 10:46:39;;;;;;;;;0.20;0.20;;;;;21.55;49.99;100178.09;5115660;28;8847;-59
2023/05/16 10:49:07;;;;;;;;;0.00;0.00;;;;;20.77;51.38;100177.81;5115625;28;8827;-59
2023/05/16 10:51:35;;;;;;;;;0.00;0.00;;;;;19.99;52.42;100190.59;5116059;28;8836;-61
2023/05/16 10:54:03;;;;;;;;;0.60;0.00;;;;;19.28;53.92;100184.41;5116470;28;8878;-59
2023/05/16 10:56:31;;;;;;;;;0.80;0.80;;;;;18.71;54.72;100196.22;5116297;28;8840;-58
2023/05/16 10:58:59;;;;;;;;;1.00;1.00;;;;;18.29;55.02;100192.72;5116476;28;9482;-59
2023/05/16 11:01:29;;;;;;;;;1.00;1.00;;;;;18.07;55.44;100205.97;5115584;28;8928;-59
2023/05/16 11:03:57;;;;;;;;;0.60;0.60;;;;;18.02;55.28;100202.91;5114841;28;8867;-61
2023/05/16 11:06:25;;;;;;;;;0.00;0.00;;;;;18.10;54.85;100202.94;5115139;28;8824;-59
2023/05/16 11:08:53;;;;;;;;;0.00;0.00;;;;;18.37;54.08;100208.13;5114633;28;8892;-62
2023/05/16 11:11:21;;;;;;;;;1.00;1.00;;;;;19.35;52.33;100196.19;5114677;28;8958;-58
2023/05/16 11:13:50;;;;;;;;;2.40;2.40;;;;;20.53;49.53;100192.38;5114709;28;8852;-58
2023/05/16 11:16:17;;;;;;;;;2.40;1.40;;;;;21.57;48.45;100183.34;5114215;28;8835;-58
2023/05/16 11:18:45;;;;;;;;;1.60;1.00;;;;;22.35;47.10;100195.28;5114885;28;8847;-59
2023/05/16 11:21:13;;;;;;;;;0.60;0.60;;;;;22.74;46.47;100184.88;5114610;28;8847;-59
2023/05/16 11:23:42;;;;;;;;;1.00;1.00;;;;;22.59;46.37;100187.66;5115073;28;8970;-58
2023/05/16 11:26:11;;;;;;;;;1.00;1.00;;;;;21.87;48.06;100190.50;5114646;28;8831;-59
2023/05/16 11:28:39;;;;;;;;;1.60;1.00;;;;;21.08;49.23;100192.97;5113432;28;8836;-60
2023/05/16 11:31:07;;;;;;;;;0.60;0.60;;;;;20.34;50.99;100198.22;5114406;28;8835;-61
2023/05/16 11:33:35;;;;;;;;;0.80;0.80;;;;;19.79;51.85;100207.44;5115325;28;8839;-59
2023/05/16 11:36:04;;;;;;;;;1.00;1.00;;;;;19.21;52.31;100199.59;5115327;28;8832;-59
2023/05/16 11:38:42;;;;;;;;;0.00;0.00;;;;;19.33;52.06;100206.34;5115684;28;8828;-61
2023/05/16 11:41:11;;;;;;;;;0.00;0.00;;;;;20.47;49.74;100193.06;5115883;28;8834;-61